map of LKZ home
LKZ - Airport
Location
City:  Lakenheath, Suffolk, England, United Kingdom
Name:RAF Lakenheath
ICAO:EGUL
IATA:LKZ

Details
Type:Airport (Aerodrome, Airfield)
Use:Military, International (customs port of entry)
Latitude:5224'34"N (52.409333)
Longitude:033'40"E (0.561000)
Datum:WGS 1984
Elevation:32 ft (10 m)
Variation:0.14W (WMM2015 magnetic declination)
0.15 annual change
Runways:1
Longest:9000 × 150 ft (2743 × 45.5 m), paved

Time
Time Zone:UTC+0 (DST+1)
Local Time:

Weather
METAR:EGUL 210856Z AUTO 21003KT 6000 BR OVC041 00/M01 A3021 RMK AO2 SLP234 T00041011 50000 $

Related Locations
Nearby:
Farthest:CHT: 11821 mi / 19023 km
Waitangi [Tuuta], CIT, NZ

Find:

   beyond  
but within

Other Information
Maps:
NOTAMs:
Links:
Sources:

  
  • flag of United Kingdom
  • flag of England
  • flag of Royal Air Force
  

Airport Diagram

Airport diagram for LKZ

Larger airport diagram (OBSOLETE) from NGA

Sectional Chart

Flight Planning
at skyvector.com

Satellite Image

Google Maps Satellite view

 

Copyright © 2004-2019 Karl L. Swartz. All rights reserved.
The Great Circle Mapper name and logo are trademarks of the Great Circle Mapper.
All other trademarks mentioned herein belong to their respective owners.
Please see credits for attibutions and further copyright information.

  Follow gcmap on Facebook Follow gcmap on Twitter Follow gcmap on Google+ GCmap on LinkedIn

hCard Microformat

Geo Microformat